sensor_id;sensor_type;location;lat;lon;timestamp;P1;durP1;ratioP1;P2;durP2;ratioP2
11422;SDS011;5768;51.476;7.210;2023-07-29T00:00:30;3.25;;;2.80;;
11422;SDS011;5768;51.476;7.210;2023-07-29T00:05:32;3.47;;;3.17;;
11422;SDS011;5768;51.476;7.210;2023-07-29T00:10:36;3.63;;;3.33;;
11422;SDS011;5768;51.476;7.210;2023-07-29T00:15:40;3.72;;;3.42;;
11422;SDS011;5768;51.476;7.210;2023-07-29T00:20:43;4.35;;;3.95;;
11422;SDS011;5768;51.476;7.210;2023-07-29T00:25:45;4.90;;;4.50;;
11422;SDS011;5768;51.476;7.210;2023-07-29T00:30:49;5.03;;;4.60;;
11422;SDS011;5768;51.476;7.210;2023-07-29T00:35:51;7.97;;;5.20;;
11422;SDS011;5768;51.476;7.210;2023-07-29T00:40:54;5.95;;;5.45;;
11422;SDS011;5768;51.476;7.210;2023-07-29T00:46:00;5.95;;;5.45;;
11422;SDS011;5768;51.476;7.210;2023-07-29T00:51:02;6.22;;;5.72;;
11422;SDS011;5768;51.476;7.210;2023-07-29T00:56:04;8.77;;;5.90;;
11422;SDS011;5768;51.476;7.210;2023-07-29T01:01:08;6.15;;;5.57;;
11422;SDS011;5768;51.476;7.210;2023-07-29T01:06:12;8.40;;;5.65;;
11422;SDS011;5768;51.476;7.210;2023-07-29T01:11:27;7.55;;;6.68;;
11422;SDS011;5768;51.476;7.210;2023-07-29T01:16:45;8.57;;;7.72;;
11422;SDS011;5768;51.476;7.210;2023-07-29T01:21:56;10.10;;;9.13;;
11422;SDS011;5768;51.476;7.210;2023-07-29T01:27:02;10.70;;;9.70;;
11422;SDS011;5768;51.476;7.210;2023-07-29T01:32:06;8.82;;;8.02;;
11422;SDS011;5768;51.476;7.210;2023-07-29T01:37:17;8.70;;;7.82;;
11422;SDS011;5768;51.476;7.210;2023-07-29T01:42:27;8.10;;;7.30;;
11422;SDS011;5768;51.476;7.210;2023-07-29T01:47:31;8.32;;;6.55;;
11422;SDS011;5768;51.476;7.210;2023-07-29T01:52:34;8.05;;;7.10;;
11422;SDS011;5768;51.476;7.210;2023-07-29T01:57:38;7.80;;;7.07;;
11422;SDS011;5768;51.476;7.210;2023-07-29T02:02:40;7.68;;;7.05;;
11422;SDS011;5768;51.476;7.210;2023-07-29T02:07:42;8.50;;;6.97;;
11422;SDS011;5768;51.476;7.210;2023-07-29T02:12:46;6.78;;;6.18;;
11422;SDS011;5768;51.476;7.210;2023-07-29T02:17:49;5.93;;;5.43;;
11422;SDS011;5768;51.476;7.210;2023-07-29T02:22:52;7.75;;;5.50;;
11422;SDS011;5768;51.476;7.210;2023-07-29T02:27:56;6.03;;;5.43;;
11422;SDS011;5768;51.476;7.210;2023-07-29T02:32:58;5.63;;;5.22;;
11422;SDS011;5768;51.476;7.210;2023-07-29T02:38:01;5.97;;;5.35;;
11422;SDS011;5768;51.476;7.210;2023-07-29T02:43:05;5.93;;;5.50;;
11422;SDS011;5768;51.476;7.210;2023-07-29T02:48:07;5.45;;;5.05;;
11422;SDS011;5768;51.476;7.210;2023-07-29T02:53:09;5.05;;;4.63;;
11422;SDS011;5768;51.476;7.210;2023-07-29T02:58:13;5.30;;;4.80;;
11422;SDS011;5768;51.476;7.210;2023-07-29T03:03:15;4.55;;;4.25;;
11422;SDS011;5768;51.476;7.210;2023-07-29T03:08:19;4.68;;;4.20;;
11422;SDS011;5768;51.476;7.210;2023-07-29T03:13:22;4.32;;;3.85;;
11422;SDS011;5768;51.476;7.210;2023-07-29T03:18:24;3.90;;;3.60;;
11422;SDS011;5768;51.476;7.210;2023-07-29T03:23:27;4.07;;;3.75;;
11422;SDS011;5768;51.476;7.210;2023-07-29T03:28:32;5.90;;;4.05;;
11422;SDS011;5768;51.476;7.210;2023-07-29T03:33:34;6.43;;;4.40;;
11422;SDS011;5768;51.476;7.210;2023-07-29T03:38:37;6.00;;;4.15;;
11422;SDS011;5768;51.476;7.210;2023-07-29T03:43:41;5.43;;;4.68;;
11422;SDS011;5768;51.476;7.210;2023-07-29T03:48:43;4.28;;;3.92;;
11422;SDS011;5768;51.476;7.210;2023-07-29T03:53:45;4.43;;;4.03;;
11422;SDS011;5768;51.476;7.210;2023-07-29T03:58:49;4.38;;;3.97;;
11422;SDS011;5768;51.476;7.210;2023-07-29T04:03:52;5.57;;;4.30;;
11422;SDS011;5768;51.476;7.210;2023-07-29T04:08:54;6.53;;;4.35;;
11422;SDS011;5768;51.476;7.210;2023-07-29T04:13:58;5.35;;;4.85;;
11422;SDS011;5768;51.476;7.210;2023-07-29T04:19:00;7.07;;;5.05;;
11422;SDS011;5768;51.476;7.210;2023-07-29T04:24:03;5.65;;;5.05;;
11422;SDS011;5768;51.476;7.210;2023-07-29T04:29:07;6.45;;;4.85;;
11422;SDS011;5768;51.476;7.210;2023-07-29T04:34:09;5.30;;;4.80;;
11422;SDS011;5768;51.476;7.210;2023-07-29T04:39:11;5.32;;;4.82;;
11422;SDS011;5768;51.476;7.210;2023-07-29T04:44:15;6.28;;;5.13;;
11422;SDS011;5768;51.476;7.210;2023-07-29T04:49:17;6.03;;;4.50;;
11422;SDS011;5768;51.476;7.210;2023-07-29T04:54:19;4.45;;;4.05;;
11422;SDS011;5768;51.476;7.210;2023-07-29T04:59:24;4.55;;;4.15;;
11422;SDS011;5768;51.476;7.210;2023-07-29T05:04:27;4.97;;;4.40;;
11422;SDS011;5768;51.476;7.210;2023-07-29T05:09:29;4.75;;;4.22;;
11422;SDS011;5768;51.476;7.210;2023-07-29T05:14:33;5.18;;;3.95;;
11422;SDS011;5768;51.476;7.210;2023-07-29T05:19:35;5.00;;;4.60;;
11422;SDS011;5768;51.476;7.210;2023-07-29T05:24:37;6.28;;;5.72;;
11422;SDS011;5768;51.476;7.210;2023-07-29T05:29:41;7.38;;;6.60;;
11422;SDS011;5768;51.476;7.210;2023-07-29T05:34:43;8.23;;;7.63;;
11422;SDS011;5768;51.476;7.210;2023-07-29T05:39:46;9.40;;;8.70;;
11422;SDS011;5768;51.476;7.210;2023-07-29T05:44:52;9.63;;;8.70;;
11422;SDS011;5768;51.476;7.210;2023-07-29T05:49:55;9.45;;;8.75;;
11422;SDS011;5768;51.476;7.210;2023-07-29T05:54:57;10.23;;;9.23;;
11422;SDS011;5768;51.476;7.210;2023-07-29T06:00:00;9.60;;;8.90;;
11422;SDS011;5768;51.476;7.210;2023-07-29T06:05:03;10.57;;;9.55;;
11422;SDS011;5768;51.476;7.210;2023-07-29T06:10:06;8.50;;;7.70;;
11422;SDS011;5768;51.476;7.210;2023-07-29T06:15:13;8.07;;;7.18;;
11422;SDS011;5768;51.476;7.210;2023-07-29T06:20:15;5.20;;;4.80;;
11422;SDS011;5768;51.476;7.210;2023-07-29T06:25:18;3.80;;;3.20;;
11422;SDS011;5768;51.476;7.210;2023-07-29T06:30:22;2.65;;;2.45;;
11422;SDS011;5768;51.476;7.210;2023-07-29T06:35:24;2.65;;;2.45;;
11422;SDS011;5768;51.476;7.210;2023-07-29T06:40:26;3.58;;;2.35;;
11422;SDS011;5768;51.476;7.210;2023-07-29T06:45:30;2.45;;;2.30;;
11422;SDS011;5768;51.476;7.210;2023-07-29T06:50:32;3.38;;;2.10;;
11422;SDS011;5768;51.476;7.210;2023-07-29T06:55:34;2.20;;;2.00;;
11422;SDS011;5768;51.476;7.210;2023-07-29T07:00:38;2.42;;;2.03;;
11422;SDS011;5768;51.476;7.210;2023-07-29T07:05:40;2.25;;;1.88;;
11422;SDS011;5768;51.476;7.210;2023-07-29T07:10:42;2.05;;;1.95;;
11422;SDS011;5768;51.476;7.210;2023-07-29T07:15:46;1.73;;;1.63;;
11422;SDS011;5768;51.476;7.210;2023-07-29T07:20:48;2.15;;;1.95;;
11422;SDS011;5768;51.476;7.210;2023-07-29T07:25:50;2.30;;;2.00;;
11422;SDS011;5768;51.476;7.210;2023-07-29T07:30:54;2.03;;;1.83;;
11422;SDS011;5768;51.476;7.210;2023-07-29T07:35:56;2.58;;;1.92;;
11422;SDS011;5768;51.476;7.210;2023-07-29T07:40:58;3.90;;;2.10;;
11422;SDS011;5768;51.476;7.210;2023-07-29T07:46:02;2.63;;;2.22;;
11422;SDS011;5768;51.476;7.210;2023-07-29T07:51:09;2.65;;;2.17;;
11422;SDS011;5768;51.476;7.210;2023-07-29T07:56:13;2.50;;;2.20;;
11422;SDS011;5768;51.476;7.210;2023-07-29T08:01:16;2.80;;;1.77;;
11422;SDS011;5768;51.476;7.210;2023-07-29T08:06:19;2.78;;;1.80;;
11422;SDS011;5768;51.476;7.210;2023-07-29T08:11:22;3.15;;;1.80;;
11422;SDS011;5768;51.476;7.210;2023-07-29T08:16:26;1.58;;;1.48;;
11422;SDS011;5768;51.476;7.210;2023-07-29T08:21:28;2.00;;;1.77;;
11422;SDS011;5768;51.476;7.210;2023-07-29T08:26:30;1.77;;;1.67;;
11422;SDS011;5768;51.476;7.210;2023-07-29T08:31:34;2.58;;;1.80;;
11422;SDS011;5768;51.476;7.210;2023-07-29T08:36:36;2.85;;;2.33;;
11422;SDS011;5768;51.476;7.210;2023-07-29T08:41:41;6.10;;;2.33;;
11422;SDS011;5768;51.476;7.210;2023-07-29T08:46:54;3.67;;;2.00;;
11422;SDS011;5768;51.476;7.210;2023-07-29T08:51:57;4.20;;;2.17;;
11422;SDS011;5768;51.476;7.210;2023-07-29T08:57:00;3.30;;;2.20;;
11422;SDS011;5768;51.476;7.210;2023-07-29T09:02:05;2.60;;;2.40;;
11422;SDS011;5768;51.476;7.210;2023-07-29T09:07:08;4.38;;;2.88;;
11422;SDS011;5768;51.476;7.210;2023-07-29T09:12:11;2.58;;;2.38;;
11422;SDS011;5768;51.476;7.210;2023-07-29T09:17:15;3.10;;;2.05;;
11422;SDS011;5768;51.476;7.210;2023-07-29T09:22:18;1.90;;;1.77;;
11422;SDS011;5768;51.476;7.210;2023-07-29T09:27:24;1.65;;;1.50;;
11422;SDS011;5768;51.476;7.210;2023-07-29T09:32:28;1.63;;;1.40;;
11422;SDS011;5768;51.476;7.210;2023-07-29T09:37:31;2.75;;;1.45;;
11422;SDS011;5768;51.476;7.210;2023-07-29T09:42:34;4.22;;;1.52;;
11422;SDS011;5768;51.476;7.210;2023-07-29T09:47:37;1.50;;;1.38;;
11422;SDS011;5768;51.476;7.210;2023-07-29T09:52:40;1.83;;;1.20;;
11422;SDS011;5768;51.476;7.210;2023-07-29T09:57:44;1.98;;;1.30;;
11422;SDS011;5768;51.476;7.210;2023-07-29T10:02:48;1.92;;;1.50;;
11422;SDS011;5768;51.476;7.210;2023-07-29T10:07:51;1.60;;;1.50;;
11422;SDS011;5768;51.476;7.210;2023-07-29T10:12:57;1.70;;;1.60;;
11422;SDS011;5768;51.476;7.210;2023-07-29T10:18:05;1.30;;;1.27;;
11422;SDS011;5768;51.476;7.210;2023-07-29T10:23:08;1.30;;;1.20;;
11422;SDS011;5768;51.476;7.210;2023-07-29T10:28:12;1.10;;;1.10;;
11422;SDS011;5768;51.476;7.210;2023-07-29T10:33:21;1.98;;;1.30;;
11422;SDS011;5768;51.476;7.210;2023-07-29T10:38:26;1.35;;;1.25;;
11422;SDS011;5768;51.476;7.210;2023-07-29T10:43:31;1.30;;;1.27;;
11422;SDS011;5768;51.476;7.210;2023-07-29T10:48:40;2.40;;;1.60;;
11422;SDS011;5768;51.476;7.210;2023-07-29T10:53:44;3.10;;;2.15;;
11422;SDS011;5768;51.476;7.210;2023-07-29T10:58:47;2.90;;;1.70;;
11422;SDS011;5768;51.476;7.210;2023-07-29T11:04:01;1.30;;;1.20;;
11422;SDS011;5768;51.476;7.210;2023-07-29T11:09:40;2.00;;;1.40;;
11422;SDS011;5768;51.476;7.210;2023-07-29T11:14:43;2.40;;;1.55;;
11422;SDS011;5768;51.476;7.210;2023-07-29T11:19:47;3.10;;;1.40;;
11422;SDS011;5768;51.476;7.210;2023-07-29T11:24:51;1.30;;;1.20;;
11422;SDS011;5768;51.476;7.210;2023-07-29T11:29:56;1.55;;;1.30;;
11422;SDS011;5768;51.476;7.210;2023-07-29T11:35:04;1.95;;;1.38;;
11422;SDS011;5768;51.476;7.210;2023-07-29T11:40:13;1.40;;;1.30;;
11422;SDS011;5768;51.476;7.210;2023-07-29T11:45:18;2.20;;;1.33;;
11422;SDS011;5768;51.476;7.210;2023-07-29T11:50:26;2.38;;;1.48;;
11422;SDS011;5768;51.476;7.210;2023-07-29T11:55:31;1.90;;;1.40;;
11422;SDS011;5768;51.476;7.210;2023-07-29T12:00:37;1.55;;;1.40;;
11422;SDS011;5768;51.476;7.210;2023-07-29T12:05:45;1.50;;;1.30;;
11422;SDS011;5768;51.476;7.210;2023-07-29T12:10:50;1.42;;;1.33;;
11422;SDS011;5768;51.476;7.210;2023-07-29T12:15:52;3.53;;;1.50;;
11422;SDS011;5768;51.476;7.210;2023-07-29T12:21:13;3.33;;;1.67;;
11422;SDS011;5768;51.476;7.210;2023-07-29T12:26:16;3.88;;;1.67;;
11422;SDS011;5768;51.476;7.210;2023-07-29T12:31:18;1.55;;;1.40;;
11422;SDS011;5768;51.476;7.210;2023-07-29T12:36:21;1.73;;;1.55;;
11422;SDS011;5768;51.476;7.210;2023-07-29T12:41:29;1.55;;;1.35;;
11422;SDS011;5768;51.476;7.210;2023-07-29T12:46:31;1.65;;;1.38;;
11422;SDS011;5768;51.476;7.210;2023-07-29T12:51:34;1.45;;;1.35;;
11422;SDS011;5768;51.476;7.210;2023-07-29T12:56:37;3.55;;;1.48;;
11422;SDS011;5768;51.476;7.210;2023-07-29T13:01:39;1.40;;;1.30;;
11422;SDS011;5768;51.476;7.210;2023-07-29T13:06:43;2.25;;;1.70;;
11422;SDS011;5768;51.476;7.210;2023-07-29T13:11:45;3.05;;;1.50;;
11422;SDS011;5768;51.476;7.210;2023-07-29T13:16:48;1.88;;;1.55;;
11422;SDS011;5768;51.476;7.210;2023-07-29T13:21:51;1.60;;;1.50;;
11422;SDS011;5768;51.476;7.210;2023-07-29T13:26:53;2.10;;;1.60;;
11422;SDS011;5768;51.476;7.210;2023-07-29T13:31:56;1.60;;;1.50;;
11422;SDS011;5768;51.476;7.210;2023-07-29T13:36:59;1.92;;;1.50;;
11422;SDS011;5768;51.476;7.210;2023-07-29T13:42:04;1.92;;;1.65;;
11422;SDS011;5768;51.476;7.210;2023-07-29T13:47:06;1.70;;;1.60;;
11422;SDS011;5768;51.476;7.210;2023-07-29T13:52:10;1.90;;;1.80;;
11422;SDS011;5768;51.476;7.210;2023-07-29T13:57:15;1.75;;;1.65;;
11422;SDS011;5768;51.476;7.210;2023-07-29T14:02:17;1.60;;;1.50;;
11422;SDS011;5768;51.476;7.210;2023-07-29T14:07:21;1.92;;;1.70;;
11422;SDS011;5768;51.476;7.210;2023-07-29T14:12:23;2.63;;;1.65;;
11422;SDS011;5768;51.476;7.210;2023-07-29T14:17:25;2.70;;;1.90;;
11422;SDS011;5768;51.476;7.210;2023-07-29T14:22:29;2.28;;;2.08;;
11422;SDS011;5768;51.476;7.210;2023-07-29T14:27:31;2.45;;;2.20;;
11422;SDS011;5768;51.476;7.210;2023-07-29T14:32:33;3.70;;;2.20;;
11422;SDS011;5768;51.476;7.210;2023-07-29T14:37:37;2.95;;;1.80;;
11422;SDS011;5768;51.476;7.210;2023-07-29T14:42:39;1.65;;;1.40;;
11422;SDS011;5768;51.476;7.210;2023-07-29T14:47:41;2.17;;;1.48;;
11422;SDS011;5768;51.476;7.210;2023-07-29T14:52:45;2.03;;;1.50;;
11422;SDS011;5768;51.476;7.210;2023-07-29T14:57:47;2.78;;;1.50;;
11422;SDS011;5768;51.476;7.210;2023-07-29T15:02:49;1.65;;;1.20;;
11422;SDS011;5768;51.476;7.210;2023-07-29T15:07:53;1.20;;;1.10;;
11422;SDS011;5768;51.476;7.210;2023-07-29T15:12:55;1.40;;;1.30;;
11422;SDS011;5768;51.476;7.210;2023-07-29T15:17:58;2.05;;;1.60;;
11422;SDS011;5768;51.476;7.210;2023-07-29T15:23:01;1.67;;;1.50;;
11422;SDS011;5768;51.476;7.210;2023-07-29T15:28:03;1.88;;;1.60;;
11422;SDS011;5768;51.476;7.210;2023-07-29T15:33:06;3.40;;;3.10;;
11422;SDS011;5768;51.476;7.210;2023-07-29T15:38:09;2.63;;;2.08;;
11422;SDS011;5768;51.476;7.210;2023-07-29T15:43:12;2.22;;;1.92;;
11422;SDS011;5768;51.476;7.210;2023-07-29T15:48:14;1.85;;;1.75;;
11422;SDS011;5768;51.476;7.210;2023-07-29T15:53:17;1.95;;;1.83;;
11422;SDS011;5768;51.476;7.210;2023-07-29T15:58:19;4.05;;;2.58;;
11422;SDS011;5768;51.476;7.210;2023-07-29T16:03:22;2.00;;;1.83;;
11422;SDS011;5768;51.476;7.210;2023-07-29T16:08:26;2.03;;;1.80;;
11422;SDS011;5768;51.476;7.210;2023-07-29T16:13:29;1.98;;;1.77;;
11422;SDS011;5768;51.476;7.210;2023-07-29T16:18:31;2.72;;;1.45;;
11422;SDS011;5768;51.476;7.210;2023-07-29T16:23:34;1.33;;;1.23;;
11422;SDS011;5768;51.476;7.210;2023-07-29T16:28:38;1.35;;;1.20;;
11422;SDS011;5768;51.476;7.210;2023-07-29T16:33:41;1.30;;;1.20;;
11422;SDS011;5768;51.476;7.210;2023-07-29T16:38:44;1.42;;;1.33;;
11422;SDS011;5768;51.476;7.210;2023-07-29T16:43:47;1.30;;;1.20;;
11422;SDS011;5768;51.476;7.210;2023-07-29T16:48:49;1.83;;;1.70;;
11422;SDS011;5768;51.476;7.210;2023-07-29T16:53:52;1.50;;;1.40;;
11422;SDS011;5768;51.476;7.210;2023-07-29T16:58:56;3.47;;;3.03;;
11422;SDS011;5768;51.476;7.210;2023-07-29T17:03:58;2.40;;;2.20;;
11422;SDS011;5768;51.476;7.210;2023-07-29T17:09:02;2.78;;;2.58;;
11422;SDS011;5768;51.476;7.210;2023-07-29T17:14:04;1.98;;;1.85;;
11422;SDS011;5768;51.476;7.210;2023-07-29T17:19:06;2.97;;;1.52;;
11422;SDS011;5768;51.476;7.210;2023-07-29T17:24:10;1.80;;;1.70;;
11422;SDS011;5768;51.476;7.210;2023-07-29T17:29:12;2.10;;;1.95;;
11422;SDS011;5768;51.476;7.210;2023-07-29T17:34:14;7.22;;;6.10;;
11422;SDS011;5768;51.476;7.210;2023-07-29T17:39:18;5.75;;;5.15;;
11422;SDS011;5768;51.476;7.210;2023-07-29T17:44:20;7.95;;;6.57;;
11422;SDS011;5768;51.476;7.210;2023-07-29T17:49:23;3.78;;;2.33;;
11422;SDS011;5768;51.476;7.210;2023-07-29T17:54:26;2.40;;;2.20;;
11422;SDS011;5768;51.476;7.210;2023-07-29T17:59:29;1.90;;;1.80;;
11422;SDS011;5768;51.476;7.210;2023-07-29T18:04:32;3.83;;;1.83;;
11422;SDS011;5768;51.476;7.210;2023-07-29T18:09:36;1.88;;;1.77;;
11422;SDS011;5768;51.476;7.210;2023-07-29T18:14:38;3.13;;;2.40;;
11422;SDS011;5768;51.476;7.210;2023-07-29T18:19:40;2.60;;;2.30;;
11422;SDS011;5768;51.476;7.210;2023-07-29T18:24:46;2.10;;;1.83;;
11422;SDS011;5768;51.476;7.210;2023-07-29T18:29:48;3.45;;;2.30;;
11422;SDS011;5768;51.476;7.210;2023-07-29T18:34:50;3.67;;;2.20;;
11422;SDS011;5768;51.476;7.210;2023-07-29T18:39:54;2.05;;;1.52;;
11422;SDS011;5768;51.476;7.210;2023-07-29T18:44:56;1.98;;;1.48;;
11422;SDS011;5768;51.476;7.210;2023-07-29T18:49:59;1.70;;;1.60;;
11422;SDS011;5768;51.476;7.210;2023-07-29T18:55:06;2.35;;;1.52;;
11422;SDS011;5768;51.476;7.210;2023-07-29T19:00:09;1.70;;;1.55;;
11422;SDS011;5768;51.476;7.210;2023-07-29T19:05:12;2.83;;;1.77;;
11422;SDS011;5768;51.476;7.210;2023-07-29T19:10:15;1.50;;;1.40;;
11422;SDS011;5768;51.476;7.210;2023-07-29T19:15:18;2.10;;;1.80;;
11422;SDS011;5768;51.476;7.210;2023-07-29T19:20:20;2.30;;;1.58;;
11422;SDS011;5768;51.476;7.210;2023-07-29T19:25:24;2.92;;;1.77;;
11422;SDS011;5768;51.476;7.210;2023-07-29T19:30:26;4.28;;;1.75;;
11422;SDS011;5768;51.476;7.210;2023-07-29T19:35:28;2.03;;;1.80;;
11422;SDS011;5768;51.476;7.210;2023-07-29T19:40:33;3.28;;;2.08;;
11422;SDS011;5768;51.476;7.210;2023-07-29T19:45:35;2.33;;;1.88;;
11422;SDS011;5768;51.476;7.210;2023-07-29T19:50:38;3.25;;;2.10;;
11422;SDS011;5768;51.476;7.210;2023-07-29T19:55:41;2.25;;;2.05;;
11422;SDS011;5768;51.476;7.210;2023-07-29T20:00:50;3.17;;;2.72;;
11422;SDS011;5768;51.476;7.210;2023-07-29T20:05:53;2.67;;;2.03;;
11422;SDS011;5768;51.476;7.210;2023-07-29T20:10:57;2.85;;;2.30;;
11422;SDS011;5768;51.476;7.210;2023-07-29T20:16:00;2.33;;;2.13;;
11422;SDS011;5768;51.476;7.210;2023-07-29T20:21:02;2.70;;;2.47;;
11422;SDS011;5768;51.476;7.210;2023-07-29T20:26:06;4.88;;;2.47;;
11422;SDS011;5768;51.476;7.210;2023-07-29T20:31:08;2.63;;;2.15;;
11422;SDS011;5768;51.476;7.210;2023-07-29T20:36:14;3.22;;;2.20;;
11422;SDS011;5768;51.476;7.210;2023-07-29T20:41:18;3.13;;;2.22;;
11422;SDS011;5768;51.476;7.210;2023-07-29T20:46:20;2.53;;;2.33;;
11422;SDS011;5768;51.476;7.210;2023-07-29T20:51:25;3.10;;;2.35;;
11422;SDS011;5768;51.476;7.210;2023-07-29T20:56:28;3.15;;;2.65;;
11422;SDS011;5768;51.476;7.210;2023-07-29T21:01:31;3.17;;;2.42;;
11422;SDS011;5768;51.476;7.210;2023-07-29T21:06:34;3.10;;;2.50;;
11422;SDS011;5768;51.476;7.210;2023-07-29T21:11:39;3.40;;;2.67;;
11422;SDS011;5768;51.476;7.210;2023-07-29T21:16:41;3.22;;;2.97;;
11422;SDS011;5768;51.476;7.210;2023-07-29T21:21:44;2.95;;;2.75;;
11422;SDS011;5768;51.476;7.210;2023-07-29T21:26:49;3.35;;;2.88;;
11422;SDS011;5768;51.476;7.210;2023-07-29T21:31:51;3.17;;;2.92;;
11422;SDS011;5768;51.476;7.210;2023-07-29T21:36:53;3.45;;;3.15;;
11422;SDS011;5768;51.476;7.210;2023-07-29T21:41:57;3.53;;;3.25;;
11422;SDS011;5768;51.476;7.210;2023-07-29T21:46:59;4.25;;;3.15;;
11422;SDS011;5768;51.476;7.210;2023-07-29T21:52:01;4.45;;;3.70;;
11422;SDS011;5768;51.476;7.210;2023-07-29T21:57:06;6.53;;;3.58;;
11422;SDS011;5768;51.476;7.210;2023-07-29T22:02:08;3.92;;;3.53;;
11422;SDS011;5768;51.476;7.210;2023-07-29T22:07:11;4.60;;;3.88;;
11422;SDS011;5768;51.476;7.210;2023-07-29T22:12:16;4.18;;;3.50;;
11422;SDS011;5768;51.476;7.210;2023-07-29T22:17:18;4.35;;;3.72;;
11422;SDS011;5768;51.476;7.210;2023-07-29T22:22:20;3.72;;;3.40;;
11422;SDS011;5768;51.476;7.210;2023-07-29T22:27:24;6.75;;;3.55;;
11422;SDS011;5768;51.476;7.210;2023-07-29T22:32:26;4.20;;;3.50;;
11422;SDS011;5768;51.476;7.210;2023-07-29T22:37:29;3.53;;;3.10;;
11422;SDS011;5768;51.476;7.210;2023-07-29T22:42:32;8.10;;;3.80;;
11422;SDS011;5768;51.476;7.210;2023-07-29T22:47:34;5.47;;;3.55;;
11422;SDS011;5768;51.476;7.210;2023-07-29T22:52:36;4.55;;;3.58;;
11422;SDS011;5768;51.476;7.210;2023-07-29T22:57:40;3.80;;;3.33;;
11422;SDS011;5768;51.476;7.210;2023-07-29T23:02:42;5.43;;;3.55;;
11422;SDS011;5768;51.476;7.210;2023-07-29T23:07:45;4.88;;;3.47;;
11422;SDS011;5768;51.476;7.210;2023-07-29T23:12:49;4.45;;;3.30;;
11422;SDS011;5768;51.476;7.210;2023-07-29T23:17:51;5.88;;;2.85;;
11422;SDS011;5768;51.476;7.210;2023-07-29T23:22:54;6.72;;;3.40;;
11422;SDS011;5768;51.476;7.210;2023-07-29T23:27:57;7.40;;;3.25;;
11422;SDS011;5768;51.476;7.210;2023-07-29T23:32:59;4.13;;;3.40;;
11422;SDS011;5768;51.476;7.210;2023-07-29T23:38:02;7.68;;;3.78;;
11422;SDS011;5768;51.476;7.210;2023-07-29T23:43:06;5.82;;;3.50;;
11422;SDS011;5768;51.476;7.210;2023-07-29T23:48:08;5.95;;;3.78;;
11422;SDS011;5768;51.476;7.210;2023-07-29T23:53:10;5.43;;;3.75;;
11422;SDS011;5768;51.476;7.210;2023-07-29T23:58:14;6.75;;;4.03;;
